createdAt,value
2022-08-09T00:01:57.580Z,3.22
2022-08-09T00:04:34.760Z,2.65
2022-08-09T00:07:10.574Z,3.00
2022-08-09T00:09:40.626Z,2.97
2022-08-09T00:12:15.455Z,2.38
2022-08-09T00:14:56.698Z,2.55
2022-08-09T00:18:05.381Z,2.60
2022-08-09T00:20:18.260Z,2.55
2022-08-09T00:22:48.228Z,2.20
2022-08-09T00:25:23.126Z,2.22
2022-08-09T00:28:04.176Z,3.00
2022-08-09T00:30:34.045Z,2.38
2022-08-09T00:33:03.995Z,2.67
2022-08-09T00:35:43.479Z,2.72
2022-08-09T00:38:14.035Z,2.83
2022-08-09T00:44:15.498Z,2.80
2022-08-09T00:46:28.366Z,2.95
2022-08-09T00:49:04.106Z,2.88
2022-08-09T00:51:42.653Z,2.47
2022-08-09T00:54:31.638Z,3.38
2022-08-09T00:57:08.852Z,2.80
2022-08-09T00:59:47.193Z,2.70
2022-08-09T01:02:24.240Z,2.92
2022-08-09T01:05:03.249Z,2.40
2022-08-09T01:08:01.074Z,2.97
2022-08-09T01:10:35.648Z,2.70
2022-08-09T01:13:16.757Z,2.67
2022-08-09T01:15:51.796Z,2.80
2022-08-09T01:18:31.444Z,2.97
2022-08-09T01:21:17.490Z,2.83
2022-08-09T01:24:02.837Z,2.65
2022-08-09T01:27:09.669Z,2.70
2022-08-09T01:29:55.751Z,2.67
2022-08-09T01:32:34.274Z,2.30
2022-08-09T01:35:28.350Z,2.83
2022-08-09T01:38:10.795Z,2.70
2022-08-09T01:40:52.839Z,2.88
2022-08-09T01:43:50.801Z,3.03
2022-08-09T01:46:24.167Z,2.95
2022-08-09T01:49:00.248Z,2.67
2022-08-09T01:51:44.460Z,2.55
2022-08-09T01:54:25.628Z,3.03
2022-08-09T01:56:59.943Z,3.03
2022-08-09T01:59:41.093Z,2.67
2022-08-09T02:02:31.299Z,3.83
2022-08-09T02:05:05.595Z,5.72
2022-08-09T02:08:38.629Z,18.92
2022-08-09T02:10:38.756Z,12.85
2022-08-09T02:13:12.958Z,3.78
2022-08-09T02:15:50.471Z,6.45
2022-08-09T02:18:23.863Z,3.90
2022-08-09T02:20:57.144Z,4.72
2022-08-09T02:23:39.803Z,4.13
2022-08-09T02:26:24.822Z,3.42
2022-08-09T02:29:00.653Z,3.25
2022-08-09T02:31:36.137Z,3.10
2022-08-09T02:34:25.779Z,3.13
2022-08-09T02:37:07.433Z,3.03
2022-08-09T02:39:49.608Z,3.65
2022-08-09T02:42:24.795Z,2.60
2022-08-09T02:45:00.403Z,3.10
2022-08-09T02:47:46.314Z,3.55
2022-08-09T02:50:30.969Z,3.00
2022-08-09T02:53:05.945Z,3.15
2022-08-09T02:55:53.775Z,3.17
2022-08-09T02:58:38.054Z,5.07
2022-08-09T03:01:11.240Z,7.38
2022-08-09T03:04:16.652Z,11.82
2022-08-09T03:06:40.379Z,5.25
2022-08-09T03:09:11.414Z,3.10
2022-08-09T03:12:09.660Z,6.20
2022-08-09T03:14:34.413Z,3.25
2022-08-09T03:17:07.113Z,4.38
2022-08-09T03:19:57.888Z,2.70
2022-08-09T03:22:41.827Z,2.90
2022-08-09T03:28:04.276Z,2.65
2022-08-09T03:30:41.073Z,2.47
2022-08-09T03:33:18.913Z,2.47
2022-08-09T03:36:13.061Z,2.42
2022-08-09T03:38:46.128Z,2.40
2022-08-09T03:41:18.420Z,2.83
2022-08-09T03:44:03.326Z,2.97
2022-08-09T03:46:38.273Z,2.95
2022-08-09T03:49:10.263Z,2.70
2022-08-09T03:51:58.229Z,2.70
2022-08-09T03:54:34.640Z,3.10
2022-08-09T03:57:18.099Z,2.88
2022-08-09T03:59:55.479Z,8.63
2022-08-09T04:02:28.582Z,6.00
2022-08-09T04:05:05.872Z,4.75
2022-08-09T04:07:52.387Z,5.22
2022-08-09T04:10:28.701Z,3.47
2022-08-09T04:13:04.245Z,3.55
2022-08-09T04:16:17.470Z,3.28
2022-08-09T04:18:25.308Z,3.10
2022-08-09T04:20:55.070Z,2.47
2022-08-09T04:23:25.705Z,2.60
2022-08-09T04:25:56.431Z,2.58
2022-08-09T04:28:32.919Z,2.30
2022-08-09T04:31:09.733Z,2.85
2022-08-09T04:33:52.924Z,2.72
2022-08-09T04:36:27.713Z,3.03
2022-08-09T04:39:01.242Z,2.90
2022-08-09T04:41:33.077Z,3.28
2022-08-09T04:44:06.380Z,7.03
2022-08-09T04:46:57.391Z,3.20
2022-08-09T04:49:54.711Z,2.97
2022-08-09T04:52:32.483Z,3.00
2022-08-09T04:55:05.055Z,3.58
2022-08-09T04:57:54.189Z,3.30
2022-08-09T05:00:31.648Z,3.00
2022-08-09T05:03:30.205Z,3.50
2022-08-09T05:06:04.326Z,18.30
2022-08-09T05:08:37.282Z,3.70
2022-08-09T05:11:09.286Z,3.07
2022-08-09T05:13:40.921Z,3.42
2022-08-09T05:16:11.379Z,5.85
2022-08-09T05:18:58.128Z,6.65
2022-08-09T05:21:29.997Z,3.80
2022-08-09T05:24:06.855Z,2.88
2022-08-09T05:26:45.593Z,3.97
2022-08-09T05:29:21.289Z,3.03
2022-08-09T05:31:59.098Z,2.65
2022-08-09T05:34:30.712Z,2.53
2022-08-09T05:37:06.475Z,2.88
2022-08-09T05:39:43.927Z,2.72
2022-08-09T05:42:17.966Z,2.30
2022-08-09T05:44:52.678Z,3.08
2022-08-09T05:47:25.103Z,2.30
2022-08-09T05:50:30.097Z,2.30
2022-08-09T05:52:53.541Z,2.45
2022-08-09T05:55:24.451Z,2.72
2022-08-09T05:57:58.511Z,4.18
2022-08-09T06:00:32.924Z,2.83
2022-08-09T06:03:04.534Z,2.55
2022-08-09T06:05:50.230Z,2.83
2022-08-09T06:08:31.238Z,2.60
2022-08-09T06:11:01.501Z,2.45
2022-08-09T06:13:47.791Z,4.60
2022-08-09T06:16:18.095Z,6.88
2022-08-09T06:18:49.594Z,2.30
2022-08-09T06:24:23.620Z,2.50
2022-08-09T06:26:53.532Z,9.13
2022-08-09T06:29:23.542Z,3.17
2022-08-09T06:32:08.617Z,2.83
2022-08-09T06:34:39.363Z,3.15
2022-08-09T06:37:10.318Z,3.20
2022-08-09T06:39:57.701Z,2.80
2022-08-09T06:42:33.640Z,3.00
2022-08-09T06:45:20.429Z,3.33
2022-08-09T06:48:00.642Z,2.78
2022-08-09T06:50:32.173Z,3.17
2022-08-09T06:53:05.089Z,3.17
2022-08-09T06:55:36.456Z,3.13
2022-08-09T06:58:07.941Z,3.00
2022-08-09T07:00:59.558Z,3.30
2022-08-09T07:03:29.989Z,2.90
2022-08-09T07:06:05.099Z,4.30
2022-08-09T07:08:37.014Z,2.97
2022-08-09T07:11:12.766Z,5.10
2022-08-09T07:14:05.092Z,3.60
2022-08-09T07:16:42.974Z,6.20
2022-08-09T07:19:23.405Z,3.90
2022-08-09T07:21:57.133Z,3.00
2022-08-09T07:24:32.710Z,2.85
2022-08-09T07:27:33.084Z,2.67
2022-08-09T07:30:05.921Z,2.78
2022-08-09T07:32:36.896Z,4.53
2022-08-09T07:35:11.643Z,3.13
2022-08-09T07:37:43.839Z,2.22
2022-08-09T07:40:18.271Z,2.72
2022-08-09T07:42:55.726Z,3.40
2022-08-09T07:45:40.378Z,3.20
2022-08-09T07:48:22.389Z,2.55
2022-08-09T07:51:10.190Z,2.47
2022-08-09T07:54:05.309Z,2.53
2022-08-09T07:56:44.977Z,2.33
2022-08-09T07:59:25.091Z,2.30
2022-08-09T08:02:04.890Z,3.75
2022-08-09T08:04:37.324Z,3.17
2022-08-09T08:07:09.385Z,4.15
2022-08-09T08:10:07.791Z,2.63
2022-08-09T08:12:45.664Z,4.30
2022-08-09T08:15:24.155Z,3.20
2022-08-09T08:17:58.235Z,3.25
2022-08-09T08:20:32.761Z,2.95
2022-08-09T08:23:15.899Z,3.40
2022-08-09T08:25:50.417Z,2.90
2022-08-09T08:28:37.632Z,3.53
2022-08-09T08:31:15.108Z,2.38
2022-08-09T08:33:52.180Z,2.70
2022-08-09T08:36:28.918Z,2.28
2022-08-09T08:39:00.549Z,3.17
2022-08-09T08:41:50.398Z,2.53
2022-08-09T08:44:29.379Z,2.13
2022-08-09T08:47:12.373Z,2.90
2022-08-09T08:49:46.794Z,2.70
2022-08-09T08:52:58.267Z,2.45
2022-08-09T08:55:19.050Z,2.92
2022-08-09T08:57:58.299Z,2.60
2022-08-09T09:00:30.186Z,2.92
2022-08-09T09:03:11.362Z,2.78
2022-08-09T09:05:58.670Z,2.70
2022-08-09T09:11:13.712Z,2.38
2022-08-09T09:13:57.207Z,2.97
2022-08-09T09:16:33.670Z,2.42
2022-08-09T09:22:11.688Z,2.58
2022-08-09T09:24:46.908Z,2.53
2022-08-09T09:28:04.184Z,2.95
2022-08-09T09:30:40.151Z,2.50
2022-08-09T09:33:16.116Z,2.42
2022-08-09T09:36:01.346Z,1.65
2022-08-09T09:38:48.728Z,1.92
2022-08-09T09:41:49.825Z,1.48
2022-08-09T09:44:32.011Z,3.00
2022-08-09T09:47:11.874Z,1.90
2022-08-09T09:50:07.383Z,1.40
2022-08-09T09:52:37.374Z,1.90
2022-08-09T09:55:24.221Z,1.98
2022-08-09T09:58:17.025Z,2.42
2022-08-09T10:00:55.944Z,3.22
2022-08-09T10:03:56.323Z,2.63
2022-08-09T10:06:27.725Z,3.85
2022-08-09T10:09:22.751Z,2.10
2022-08-09T10:12:14.844Z,2.53
2022-08-09T10:14:54.203Z,3.33
2022-08-09T10:17:50.288Z,2.40
2022-08-09T10:20:32.533Z,1.67
2022-08-09T10:23:20.289Z,1.50
2022-08-09T10:26:07.447Z,1.80
2022-08-09T10:28:48.781Z,1.90
2022-08-09T10:34:33.125Z,1.90
2022-08-09T10:37:09.639Z,1.60
2022-08-09T10:39:49.259Z,1.40
2022-08-09T10:42:20.918Z,1.38
2022-08-09T10:45:04.434Z,2.00
2022-08-09T10:48:16.332Z,1.58
2022-08-09T10:53:56.456Z,1.85
2022-08-09T10:56:30.431Z,2.05
2022-08-09T10:59:30.831Z,1.70
2022-08-09T11:03:10.837Z,3.00
2022-08-09T11:05:24.919Z,2.00
2022-08-09T11:08:51.237Z,1.85
2022-08-09T11:11:52.124Z,2.38
2022-08-09T11:14:35.694Z,1.20
2022-08-09T11:18:02.978Z,3.15
2022-08-09T11:20:50.092Z,2.10
2022-08-09T11:23:30.189Z,1.50
2022-08-09T11:26:01.778Z,1.40
2022-08-09T11:28:56.518Z,1.27
2022-08-09T11:31:52.696Z,2.28
2022-08-09T11:34:35.406Z,4.53
2022-08-09T11:37:07.362Z,2.05
2022-08-09T11:40:05.863Z,1.45
2022-08-09T11:42:49.903Z,4.72
2022-08-09T11:45:42.059Z,1.85
2022-08-09T11:48:26.438Z,3.22
2022-08-09T11:51:38.107Z,3.33
2022-08-09T11:54:27.971Z,2.00
2022-08-09T11:58:00.102Z,3.00
2022-08-09T12:00:34.091Z,2.13
2022-08-09T12:03:50.310Z,4.72
2022-08-09T12:05:59.196Z,1.60
2022-08-09T12:08:31.249Z,3.03
2022-08-09T12:11:05.357Z,12.98
2022-08-09T12:14:09.977Z,1.60
2022-08-09T12:16:40.286Z,1.83
2022-08-09T12:19:12.320Z,1.10
2022-08-09T12:21:51.533Z,1.45
2022-08-09T12:24:26.139Z,1.40
2022-08-09T12:29:10.494Z,1.38
2022-08-09T12:30:29.980Z,1.00
2022-08-09T12:33:03.536Z,1.95
2022-08-09T12:35:40.822Z,1.90
2022-08-09T12:38:38.212Z,1.63
2022-08-09T12:41:13.547Z,1.20
2022-08-09T12:44:06.984Z,1.20
2022-08-09T12:46:39.041Z,1.00
2022-08-09T12:49:10.644Z,1.40
2022-08-09T12:51:59.954Z,1.30
2022-08-09T12:55:03.150Z,1.00
2022-08-09T12:57:42.559Z,1.30
2022-08-09T13:00:25.101Z,1.50
2022-08-09T13:02:58.327Z,1.10
2022-08-09T13:05:51.649Z,1.15
2022-08-09T13:08:40.171Z,1.30
2022-08-09T13:11:23.219Z,1.60
2022-08-09T13:14:41.145Z,1.60
2022-08-09T13:16:59.512Z,1.70
2022-08-09T13:20:09.772Z,1.92
2022-08-09T13:22:36.782Z,1.48
2022-08-09T13:25:15.399Z,1.88
2022-08-09T13:27:55.912Z,2.20
2022-08-09T13:30:50.763Z,1.48
2022-08-09T13:33:52.609Z,1.52
2022-08-09T13:36:39.268Z,1.65
2022-08-09T13:39:34.317Z,1.52
2022-08-09T13:42:12.116Z,2.35
2022-08-09T13:44:44.411Z,1.95
2022-08-09T13:47:31.126Z,1.50
2022-08-09T13:50:12.752Z,1.83
2022-08-09T13:52:49.752Z,1.30
2022-08-09T13:57:55.912Z,2.13
2022-08-09T14:00:30.585Z,2.10
2022-08-09T14:03:04.146Z,3.50
2022-08-09T14:05:56.850Z,3.58
2022-08-09T14:08:34.626Z,1.83
2022-08-09T14:11:15.918Z,2.47
2022-08-09T14:14:21.933Z,1.67
2022-08-09T14:16:40.225Z,1.60
2022-08-09T14:19:13.201Z,1.85
2022-08-09T14:21:43.353Z,1.65
2022-08-09T14:24:22.118Z,1.52
2022-08-09T14:27:03.427Z,1.98
2022-08-09T14:30:35.477Z,2.15
2022-08-09T14:32:47.233Z,1.50
2022-08-09T14:35:19.822Z,2.10
2022-08-09T14:38:02.331Z,1.50
2022-08-09T14:41:00.670Z,1.60
2022-08-09T14:43:46.881Z,1.75
2022-08-09T14:46:55.588Z,1.70
2022-08-09T14:49:16.109Z,1.83
2022-08-09T14:51:46.331Z,2.30
2022-08-09T14:54:22.418Z,1.98
2022-08-09T14:56:59.409Z,2.08
2022-08-09T14:59:29.741Z,2.45
2022-08-09T15:02:01.806Z,1.90
2022-08-09T15:04:37.092Z,2.67
2022-08-09T15:07:10.231Z,7.65
2022-08-09T15:10:03.778Z,2.53
2022-08-09T15:12:34.457Z,2.17
2022-08-09T15:15:08.635Z,2.00
2022-08-09T15:17:42.200Z,3.25
2022-08-09T15:21:58.873Z,1.80
2022-08-09T15:24:02.788Z,2.53
2022-08-09T15:26:09.167Z,1.80
2022-08-09T15:28:54.747Z,1.92
2022-08-09T15:31:28.640Z,1.88
2022-08-09T15:34:32.341Z,1.55
2022-08-09T15:37:37.123Z,2.30
2022-08-09T15:40:20.082Z,2.10
2022-08-09T15:42:53.719Z,2.05
2022-08-09T15:45:29.288Z,2.00
2022-08-09T15:48:06.457Z,1.75
2022-08-09T15:50:44.110Z,1.73
2022-08-09T15:53:18.770Z,1.80
2022-08-09T15:56:29.154Z,2.00
2022-08-09T15:59:02.428Z,2.05
2022-08-09T16:01:35.497Z,1.98
2022-08-09T16:04:13.478Z,1.83
2022-08-09T16:06:50.615Z,2.03
2022-08-09T16:09:32.672Z,2.33
2022-08-09T16:12:17.224Z,2.78
2022-08-09T16:14:48.316Z,4.97
2022-08-09T16:17:19.752Z,5.63
2022-08-09T16:20:04.771Z,1.80
2022-08-09T16:22:48.861Z,4.25
2022-08-09T16:25:39.397Z,2.03
2022-08-09T16:28:13.604Z,5.50
2022-08-09T16:30:44.594Z,2.40
2022-08-09T16:33:16.276Z,3.08
2022-08-09T16:35:57.949Z,4.65
2022-08-09T16:38:32.538Z,2.25
2022-08-09T16:41:07.005Z,2.13
2022-08-09T16:43:40.354Z,3.20
2022-08-09T16:46:10.801Z,2.58
2022-08-09T16:48:59.251Z,2.10
2022-08-09T16:51:34.902Z,2.30
2022-08-09T16:54:34.578Z,2.20
2022-08-09T16:57:10.742Z,2.33
2022-08-09T16:59:44.066Z,3.63
2022-08-09T17:02:25.564Z,3.95
2022-08-09T17:04:56.258Z,5.22
2022-08-09T17:08:43.599Z,2.42
2022-08-09T17:10:20.891Z,2.50
2022-08-09T17:12:53.122Z,2.50
2022-08-09T17:15:30.965Z,5.28
2022-08-09T17:18:16.752Z,3.58
2022-08-09T17:20:57.347Z,3.35
2022-08-09T17:24:20.774Z,3.08
2022-08-09T17:26:31.621Z,4.43
2022-08-09T17:29:20.418Z,4.00
2022-08-09T17:35:00.757Z,4.80
2022-08-09T17:37:19.944Z,7.10
2022-08-09T17:39:55.331Z,4.60
2022-08-09T17:42:42.129Z,10.18
2022-08-09T17:45:27.097Z,4.72
2022-08-09T17:48:02.752Z,6.28
2022-08-09T17:50:37.059Z,4.65
2022-08-09T17:53:19.426Z,4.25
2022-08-09T17:55:57.617Z,2.97
2022-08-09T17:58:30.618Z,3.30
2022-08-09T18:01:04.400Z,3.63
2022-08-09T18:03:34.277Z,3.40
2022-08-09T18:06:04.396Z,3.72
2022-08-09T18:08:44.773Z,11.70
2022-08-09T18:11:16.329Z,3.95
2022-08-09T18:13:57.263Z,5.97
2022-08-09T18:16:48.905Z,4.13
2022-08-09T18:20:54.132Z,6.32
2022-08-09T18:22:17.303Z,7.63
2022-08-09T18:24:50.732Z,4.80
2022-08-09T18:28:02.898Z,5.45
2022-08-09T18:30:40.709Z,5.25
2022-08-09T18:33:12.745Z,4.40
2022-08-09T18:35:59.104Z,4.32
2022-08-09T18:38:32.175Z,5.03
2022-08-09T18:41:03.310Z,4.50
2022-08-09T18:43:35.206Z,4.15
2022-08-09T18:46:50.301Z,4.32
2022-08-09T18:49:02.078Z,5.10
2022-08-09T18:51:38.359Z,4.88
2022-08-09T18:54:17.694Z,5.88
2022-08-09T18:56:55.070Z,7.10
2022-08-09T18:59:27.292Z,12.02
2022-08-09T19:02:09.079Z,12.70
2022-08-09T19:04:48.035Z,12.18
2022-08-09T19:07:34.915Z,4.55
2022-08-09T19:10:17.282Z,6.20
2022-08-09T19:12:56.788Z,4.28
2022-08-09T19:15:49.159Z,5.65
2022-08-09T19:18:35.227Z,4.30
2022-08-09T19:21:10.793Z,4.90
2022-08-09T19:24:37.239Z,4.70
2022-08-09T19:26:35.152Z,3.65
2022-08-09T19:29:17.941Z,4.65
2022-08-09T19:31:51.040Z,4.28
2022-08-09T19:34:26.275Z,4.38
2022-08-09T19:36:59.397Z,4.47
2022-08-09T19:40:02.404Z,4.40
2022-08-09T19:42:28.239Z,4.97
2022-08-09T19:44:58.782Z,4.78
2022-08-09T19:47:29.585Z,4.35
2022-08-09T19:50:07.862Z,4.60
2022-08-09T19:52:53.109Z,4.55
2022-08-09T19:55:25.682Z,4.57
2022-08-09T19:58:01.470Z,4.47
2022-08-09T20:00:31.946Z,6.32
2022-08-09T20:04:16.971Z,4.97
2022-08-09T20:05:55.564Z,7.72
2022-08-09T20:08:34.943Z,5.03
2022-08-09T20:11:07.424Z,7.53
2022-08-09T20:16:37.251Z,10.02
2022-08-09T20:19:42.580Z,9.75
2022-08-09T20:21:56.503Z,8.18
2022-08-09T20:24:34.085Z,5.53
2022-08-09T20:27:08.160Z,6.10
2022-08-09T20:29:40.604Z,6.47
2022-08-09T20:32:30.727Z,4.72
2022-08-09T20:35:05.688Z,5.03
2022-08-09T20:38:22.043Z,5.05
2022-08-09T20:40:31.129Z,5.20
2022-08-09T20:43:18.166Z,5.88
2022-08-09T20:45:59.542Z,5.55
2022-08-09T20:48:32.308Z,6.55
2022-08-09T20:51:03.163Z,5.90
2022-08-09T20:53:36.888Z,5.53
2022-08-09T20:56:20.163Z,6.18
2022-08-09T20:58:54.676Z,4.90
2022-08-09T21:01:34.462Z,7.00
2022-08-09T21:05:55.151Z,13.32
2022-08-09T21:07:12.149Z,5.97
2022-08-09T21:09:55.676Z,11.27
2022-08-09T21:15:23.689Z,7.90
2022-08-09T21:18:11.664Z,6.80
2022-08-09T21:20:54.865Z,5.93
2022-08-09T21:23:36.055Z,6.55
2022-08-09T21:26:17.352Z,8.77
2022-08-09T21:28:55.994Z,14.60
2022-08-09T21:31:48.842Z,8.73
2022-08-09T21:34:29.362Z,9.90
2022-08-09T21:37:02.731Z,7.40
2022-08-09T21:39:42.367Z,6.70
2022-08-09T21:42:16.572Z,6.60
2022-08-09T21:44:47.404Z,7.53
2022-08-09T21:47:22.126Z,4.95
2022-08-09T21:49:56.306Z,5.90
2022-08-09T21:52:32.676Z,7.47
2022-08-09T21:55:04.893Z,9.27
2022-08-09T21:57:38.551Z,13.00
2022-08-09T22:00:32.476Z,11.75
2022-08-09T22:03:06.396Z,10.38
2022-08-09T22:05:42.293Z,5.85
2022-08-09T22:08:14.609Z,7.45
2022-08-09T22:11:48.917Z,5.60
2022-08-09T22:13:37.484Z,6.07
2022-08-09T22:16:09.688Z,5.72
2022-08-09T22:18:44.136Z,5.70
2022-08-09T22:21:44.757Z,5.35
2022-08-09T22:24:24.193Z,5.20
2022-08-09T22:26:55.045Z,4.45
2022-08-09T22:29:28.761Z,5.63
2022-08-09T22:32:12.677Z,4.88
2022-08-09T22:35:06.414Z,5.25
2022-08-09T22:38:06.956Z,4.60
2022-08-09T22:40:38.694Z,4.53
2022-08-09T22:44:00.487Z,4.50
2022-08-09T22:48:11.473Z,4.63
2022-08-09T22:49:05.537Z,4.60
2022-08-09T22:51:49.250Z,3.90
2022-08-09T22:54:23.661Z,3.80
2022-08-09T22:56:58.621Z,4.18
2022-08-09T22:59:56.093Z,5.15
2022-08-09T23:02:20.446Z,4.83
2022-08-09T23:04:53.607Z,17.42
2022-08-09T23:08:27.382Z,11.65
2022-08-09T23:10:34.306Z,7.00
2022-08-09T23:13:04.023Z,8.38
2022-08-09T23:15:34.752Z,4.00
2022-08-09T23:18:04.466Z,3.75
2022-08-09T23:20:39.762Z,3.53
2022-08-09T23:23:09.149Z,4.15
2022-08-09T23:25:39.415Z,4.65
2022-08-09T23:28:14.630Z,3.38
2022-08-09T23:30:51.383Z,3.47
2022-08-09T23:33:22.329Z,4.00
2022-08-09T23:36:04.623Z,3.53
2022-08-09T23:38:49.211Z,2.78
2022-08-09T23:41:27.464Z,2.88
2022-08-09T23:44:00.201Z,3.13
2022-08-09T23:46:30.396Z,2.70
2022-08-09T23:49:01.054Z,2.58
2022-08-09T23:51:32.214Z,2.40
2022-08-09T23:54:03.660Z,2.45
2022-08-09T23:56:52.118Z,2.70
